sensor_id;sensor_type;location;lat;lon;timestamp;P1;durP1;ratioP1;P2;durP2;ratioP2
34278;SDS011;20538;51.528;9.942;2022-07-23T00:00:17;12.68;;;7.78;;
34278;SDS011;20538;51.528;9.942;2022-07-23T00:02:43;12.55;;;8.80;;
34278;SDS011;20538;51.528;9.942;2022-07-23T00:05:09;15.07;;;8.32;;
34278;SDS011;20538;51.528;9.942;2022-07-23T00:07:36;14.55;;;8.60;;
34278;SDS011;20538;51.528;9.942;2022-07-23T00:10:02;17.40;;;8.38;;
34278;SDS011;20538;51.528;9.942;2022-07-23T00:12:28;11.70;;;8.02;;
34278;SDS011;20538;51.528;9.942;2022-07-23T00:14:54;13.20;;;8.68;;
34278;SDS011;20538;51.528;9.942;2022-07-23T00:17:20;18.15;;;8.65;;
34278;SDS011;20538;51.528;9.942;2022-07-23T00:19:46;16.77;;;9.10;;
34278;SDS011;20538;51.528;9.942;2022-07-23T00:22:12;13.88;;;8.23;;
34278;SDS011;20538;51.528;9.942;2022-07-23T00:24:37;14.77;;;8.18;;
34278;SDS011;20538;51.528;9.942;2022-07-23T00:27:03;19.90;;;8.68;;
34278;SDS011;20538;51.528;9.942;2022-07-23T00:32:30;17.77;;;8.60;;
34278;SDS011;20538;51.528;9.942;2022-07-23T00:34:55;11.73;;;7.93;;
34278;SDS011;20538;51.528;9.942;2022-07-23T00:37:21;16.25;;;9.20;;
34278;SDS011;20538;51.528;9.942;2022-07-23T00:39:46;11.50;;;8.00;;
34278;SDS011;20538;51.528;9.942;2022-07-23T00:42:12;14.50;;;8.93;;
34278;SDS011;20538;51.528;9.942;2022-07-23T00:44:38;14.82;;;8.50;;
34278;SDS011;20538;51.528;9.942;2022-07-23T00:47:07;14.88;;;8.50;;
34278;SDS011;20538;51.528;9.942;2022-07-23T00:49:33;14.73;;;9.25;;
34278;SDS011;20538;51.528;9.942;2022-07-23T00:51:59;12.88;;;8.43;;
34278;SDS011;20538;51.528;9.942;2022-07-23T00:54:26;15.80;;;9.88;;
34278;SDS011;20538;51.528;9.942;2022-07-23T00:56:52;13.70;;;8.48;;
34278;SDS011;20538;51.528;9.942;2022-07-23T00:59:18;18.92;;;9.00;;
34278;SDS011;20538;51.528;9.942;2022-07-23T01:01:45;14.93;;;9.02;;
34278;SDS011;20538;51.528;9.942;2022-07-23T01:04:13;14.27;;;8.93;;
34278;SDS011;20538;51.528;9.942;2022-07-23T01:06:40;15.95;;;8.65;;
34278;SDS011;20538;51.528;9.942;2022-07-23T01:09:06;15.57;;;8.77;;
34278;SDS011;20538;51.528;9.942;2022-07-23T01:11:35;14.77;;;9.00;;
34278;SDS011;20538;51.528;9.942;2022-07-23T01:14:11;18.33;;;8.95;;
34278;SDS011;20538;51.528;9.942;2022-07-23T01:16:39;14.90;;;8.73;;
34278;SDS011;20538;51.528;9.942;2022-07-23T01:19:07;14.70;;;8.45;;
34278;SDS011;20538;51.528;9.942;2022-07-23T01:21:38;14.45;;;8.63;;
34278;SDS011;20538;51.528;9.942;2022-07-23T01:24:08;14.55;;;8.77;;
34278;SDS011;20538;51.528;9.942;2022-07-23T01:26:35;19.98;;;10.38;;
34278;SDS011;20538;51.528;9.942;2022-07-23T01:29:02;18.63;;;10.38;;
34278;SDS011;20538;51.528;9.942;2022-07-23T01:31:27;15.35;;;10.60;;
34278;SDS011;20538;51.528;9.942;2022-07-23T01:33:53;17.70;;;11.43;;
34278;SDS011;20538;51.528;9.942;2022-07-23T01:36:19;19.88;;;10.65;;
34278;SDS011;20538;51.528;9.942;2022-07-23T01:38:45;24.33;;;11.30;;
34278;SDS011;20538;51.528;9.942;2022-07-23T01:41:10;16.98;;;10.70;;
34278;SDS011;20538;51.528;9.942;2022-07-23T01:43:36;20.13;;;11.60;;
34278;SDS011;20538;51.528;9.942;2022-07-23T01:46:02;17.15;;;10.57;;
34278;SDS011;20538;51.528;9.942;2022-07-23T01:48:28;20.10;;;11.35;;
34278;SDS011;20538;51.528;9.942;2022-07-23T01:50:54;19.85;;;10.95;;
34278;SDS011;20538;51.528;9.942;2022-07-23T01:53:19;17.88;;;10.48;;
34278;SDS011;20538;51.528;9.942;2022-07-23T01:55:45;16.58;;;10.75;;
34278;SDS011;20538;51.528;9.942;2022-07-23T01:58:11;17.30;;;10.77;;
34278;SDS011;20538;51.528;9.942;2022-07-23T02:00:36;20.40;;;10.82;;
34278;SDS011;20538;51.528;9.942;2022-07-23T02:03:02;21.60;;;11.38;;
34278;SDS011;20538;51.528;9.942;2022-07-23T02:05:28;26.30;;;12.10;;
34278;SDS011;20538;51.528;9.942;2022-07-23T02:07:55;19.92;;;11.02;;
34278;SDS011;20538;51.528;9.942;2022-07-23T02:10:21;18.98;;;10.73;;
34278;SDS011;20538;51.528;9.942;2022-07-23T02:12:50;18.40;;;10.60;;
34278;SDS011;20538;51.528;9.942;2022-07-23T02:15:16;21.88;;;11.32;;
34278;SDS011;20538;51.528;9.942;2022-07-23T02:17:41;17.92;;;11.57;;
34278;SDS011;20538;51.528;9.942;2022-07-23T02:20:07;17.85;;;11.02;;
34278;SDS011;20538;51.528;9.942;2022-07-23T02:22:34;23.42;;;11.93;;
34278;SDS011;20538;51.528;9.942;2022-07-23T02:25:01;18.70;;;11.20;;
34278;SDS011;20538;51.528;9.942;2022-07-23T02:27:27;22.30;;;10.88;;
34278;SDS011;20538;51.528;9.942;2022-07-23T02:29:53;20.63;;;11.70;;
34278;SDS011;20538;51.528;9.942;2022-07-23T02:32:19;25.90;;;12.60;;
34278;SDS011;20538;51.528;9.942;2022-07-23T02:34:46;20.67;;;12.68;;
34278;SDS011;20538;51.528;9.942;2022-07-23T02:37:12;19.38;;;11.57;;
34278;SDS011;20538;51.528;9.942;2022-07-23T02:39:38;20.70;;;11.55;;
34278;SDS011;20538;51.528;9.942;2022-07-23T02:42:04;21.52;;;12.50;;
34278;SDS011;20538;51.528;9.942;2022-07-23T02:44:30;19.75;;;12.50;;
34278;SDS011;20538;51.528;9.942;2022-07-23T02:46:56;20.02;;;11.88;;
34278;SDS011;20538;51.528;9.942;2022-07-23T02:49:21;20.55;;;13.48;;
34278;SDS011;20538;51.528;9.942;2022-07-23T02:51:48;23.35;;;12.95;;
34278;SDS011;20538;51.528;9.942;2022-07-23T02:54:14;25.23;;;14.25;;
34278;SDS011;20538;51.528;9.942;2022-07-23T02:56:40;26.60;;;14.07;;
34278;SDS011;20538;51.528;9.942;2022-07-23T02:59:05;21.75;;;14.23;;
34278;SDS011;20538;51.528;9.942;2022-07-23T03:01:31;23.40;;;13.45;;
34278;SDS011;20538;51.528;9.942;2022-07-23T03:03:57;24.83;;;13.27;;
34278;SDS011;20538;51.528;9.942;2022-07-23T03:06:22;25.05;;;14.00;;
34278;SDS011;20538;51.528;9.942;2022-07-23T03:08:48;22.48;;;13.82;;
34278;SDS011;20538;51.528;9.942;2022-07-23T03:11:14;21.40;;;14.00;;
34278;SDS011;20538;51.528;9.942;2022-07-23T03:13:39;27.88;;;14.60;;
34278;SDS011;20538;51.528;9.942;2022-07-23T03:16:06;26.05;;;14.70;;
34278;SDS011;20538;51.528;9.942;2022-07-23T03:18:32;24.35;;;14.52;;
34278;SDS011;20538;51.528;9.942;2022-07-23T03:20:58;25.42;;;15.57;;
34278;SDS011;20538;51.528;9.942;2022-07-23T03:23:24;27.63;;;14.52;;
34278;SDS011;20538;51.528;9.942;2022-07-23T03:25:50;25.92;;;14.18;;
34278;SDS011;20538;51.528;9.942;2022-07-23T03:28:16;23.77;;;14.40;;
34278;SDS011;20538;51.528;9.942;2022-07-23T03:30:43;24.45;;;14.82;;
34278;SDS011;20538;51.528;9.942;2022-07-23T03:33:11;23.55;;;13.90;;
34278;SDS011;20538;51.528;9.942;2022-07-23T03:35:38;26.25;;;14.05;;
34278;SDS011;20538;51.528;9.942;2022-07-23T03:38:04;23.02;;;13.15;;
34278;SDS011;20538;51.528;9.942;2022-07-23T03:40:29;22.17;;;13.27;;
34278;SDS011;20538;51.528;9.942;2022-07-23T03:42:55;25.20;;;13.50;;
34278;SDS011;20538;51.528;9.942;2022-07-23T03:45:21;26.15;;;14.40;;
34278;SDS011;20538;51.528;9.942;2022-07-23T03:47:46;27.90;;;14.10;;
34278;SDS011;20538;51.528;9.942;2022-07-23T03:50:12;25.05;;;13.95;;
34278;SDS011;20538;51.528;9.942;2022-07-23T03:52:38;23.20;;;13.18;;
34278;SDS011;20538;51.528;9.942;2022-07-23T03:55:04;27.65;;;14.88;;
34278;SDS011;20538;51.528;9.942;2022-07-23T03:57:30;25.90;;;14.02;;
34278;SDS011;20538;51.528;9.942;2022-07-23T03:59:55;23.25;;;13.57;;
34278;SDS011;20538;51.528;9.942;2022-07-23T04:02:21;20.50;;;13.55;;
34278;SDS011;20538;51.528;9.942;2022-07-23T04:04:47;27.80;;;14.13;;
34278;SDS011;20538;51.528;9.942;2022-07-23T04:07:13;22.05;;;14.02;;
34278;SDS011;20538;51.528;9.942;2022-07-23T04:09:39;21.60;;;13.75;;
34278;SDS011;20538;51.528;9.942;2022-07-23T04:12:05;23.75;;;14.25;;
34278;SDS011;20538;51.528;9.942;2022-07-23T04:14:32;25.77;;;12.98;;
34278;SDS011;20538;51.528;9.942;2022-07-23T04:16:58;28.73;;;12.75;;
34278;SDS011;20538;51.528;9.942;2022-07-23T04:19:24;21.60;;;12.15;;
34278;SDS011;20538;51.528;9.942;2022-07-23T04:21:50;22.20;;;13.52;;
34278;SDS011;20538;51.528;9.942;2022-07-23T04:24:16;26.25;;;12.75;;
34278;SDS011;20538;51.528;9.942;2022-07-23T04:26:42;18.38;;;12.65;;
34278;SDS011;20538;51.528;9.942;2022-07-23T04:29:08;23.10;;;12.40;;
34278;SDS011;20538;51.528;9.942;2022-07-23T04:31:34;23.52;;;11.80;;
34278;SDS011;20538;51.528;9.942;2022-07-23T04:34:00;22.13;;;12.15;;
34278;SDS011;20538;51.528;9.942;2022-07-23T04:36:26;16.75;;;11.32;;
34278;SDS011;20538;51.528;9.942;2022-07-23T04:38:51;23.27;;;12.07;;
34278;SDS011;20538;51.528;9.942;2022-07-23T04:41:17;20.17;;;12.32;;
34278;SDS011;20538;51.528;9.942;2022-07-23T04:43:43;25.63;;;12.55;;
34278;SDS011;20538;51.528;9.942;2022-07-23T04:46:08;21.83;;;12.15;;
34278;SDS011;20538;51.528;9.942;2022-07-23T04:48:35;21.50;;;12.10;;
34278;SDS011;20538;51.528;9.942;2022-07-23T04:51:01;21.10;;;12.75;;
34278;SDS011;20538;51.528;9.942;2022-07-23T04:53:27;27.10;;;12.32;;
34278;SDS011;20538;51.528;9.942;2022-07-23T04:55:53;23.52;;;12.95;;
34278;SDS011;20538;51.528;9.942;2022-07-23T04:58:18;21.88;;;12.93;;
34278;SDS011;20538;51.528;9.942;2022-07-23T05:00:45;20.55;;;13.00;;
34278;SDS011;20538;51.528;9.942;2022-07-23T05:03:11;20.05;;;12.40;;
34278;SDS011;20538;51.528;9.942;2022-07-23T05:05:37;23.92;;;12.50;;
34278;SDS011;20538;51.528;9.942;2022-07-23T05:08:03;22.02;;;13.30;;
34278;SDS011;20538;51.528;9.942;2022-07-23T05:10:28;27.70;;;14.00;;
34278;SDS011;20538;51.528;9.942;2022-07-23T05:12:54;21.30;;;13.30;;
34278;SDS011;20538;51.528;9.942;2022-07-23T05:15:20;25.73;;;14.32;;
34278;SDS011;20538;51.528;9.942;2022-07-23T05:17:46;22.10;;;13.68;;
34278;SDS011;20538;51.528;9.942;2022-07-23T05:20:12;28.08;;;15.13;;
34278;SDS011;20538;51.528;9.942;2022-07-23T05:22:38;23.40;;;13.75;;
34278;SDS011;20538;51.528;9.942;2022-07-23T05:25:04;24.05;;;14.23;;
34278;SDS011;20538;51.528;9.942;2022-07-23T05:27:30;23.70;;;13.60;;
34278;SDS011;20538;51.528;9.942;2022-07-23T05:29:56;23.70;;;14.32;;
34278;SDS011;20538;51.528;9.942;2022-07-23T05:32:22;20.50;;;12.93;;
34278;SDS011;20538;51.528;9.942;2022-07-23T05:34:47;21.90;;;12.98;;
34278;SDS011;20538;51.528;9.942;2022-07-23T05:37:13;22.77;;;12.98;;
34278;SDS011;20538;51.528;9.942;2022-07-23T05:39:38;22.95;;;12.43;;
34278;SDS011;20538;51.528;9.942;2022-07-23T05:42:04;24.67;;;12.52;;
34278;SDS011;20538;51.528;9.942;2022-07-23T05:44:30;22.60;;;12.00;;
34278;SDS011;20538;51.528;9.942;2022-07-23T05:46:55;20.23;;;11.98;;
34278;SDS011;20538;51.528;9.942;2022-07-23T05:49:21;24.45;;;13.05;;
34278;SDS011;20538;51.528;9.942;2022-07-23T05:51:47;22.75;;;12.13;;
34278;SDS011;20538;51.528;9.942;2022-07-23T05:54:12;19.60;;;11.88;;
34278;SDS011;20538;51.528;9.942;2022-07-23T05:56:38;19.70;;;11.32;;
34278;SDS011;20538;51.528;9.942;2022-07-23T05:59:04;17.40;;;11.05;;
34278;SDS011;20538;51.528;9.942;2022-07-23T06:01:29;19.27;;;11.38;;
34278;SDS011;20538;51.528;9.942;2022-07-23T06:03:55;20.92;;;11.85;;
34278;SDS011;20538;51.528;9.942;2022-07-23T06:06:21;18.33;;;11.10;;
34278;SDS011;20538;51.528;9.942;2022-07-23T06:08:46;19.77;;;11.65;;
34278;SDS011;20538;51.528;9.942;2022-07-23T06:11:12;17.23;;;10.95;;
34278;SDS011;20538;51.528;9.942;2022-07-23T06:13:37;16.58;;;10.18;;
34278;SDS011;20538;51.528;9.942;2022-07-23T06:16:03;19.42;;;10.75;;
34278;SDS011;20538;51.528;9.942;2022-07-23T06:18:29;16.27;;;10.88;;
34278;SDS011;20538;51.528;9.942;2022-07-23T06:20:55;20.15;;;12.23;;
34278;SDS011;20538;51.528;9.942;2022-07-23T06:23:20;18.02;;;11.10;;
34278;SDS011;20538;51.528;9.942;2022-07-23T06:25:46;19.42;;;11.02;;
34278;SDS011;20538;51.528;9.942;2022-07-23T06:28:12;19.77;;;11.02;;
34278;SDS011;20538;51.528;9.942;2022-07-23T06:30:37;18.80;;;11.18;;
34278;SDS011;20538;51.528;9.942;2022-07-23T06:33:03;17.52;;;11.27;;
34278;SDS011;20538;51.528;9.942;2022-07-23T06:35:29;24.05;;;11.18;;
34278;SDS011;20538;51.528;9.942;2022-07-23T06:37:54;19.73;;;9.90;;
34278;SDS011;20538;51.528;9.942;2022-07-23T06:40:20;17.73;;;11.00;;
34278;SDS011;20538;51.528;9.942;2022-07-23T06:42:46;21.40;;;11.60;;
34278;SDS011;20538;51.528;9.942;2022-07-23T06:45:12;20.75;;;10.85;;
34278;SDS011;20538;51.528;9.942;2022-07-23T06:47:38;17.27;;;10.80;;
34278;SDS011;20538;51.528;9.942;2022-07-23T06:50:05;17.15;;;9.88;;
34278;SDS011;20538;51.528;9.942;2022-07-23T06:52:31;16.70;;;10.38;;
34278;SDS011;20538;51.528;9.942;2022-07-23T06:54:56;16.08;;;10.50;;
34278;SDS011;20538;51.528;9.942;2022-07-23T06:57:22;14.25;;;9.90;;
34278;SDS011;20538;51.528;9.942;2022-07-23T06:59:52;19.30;;;10.57;;
34278;SDS011;20538;51.528;9.942;2022-07-23T07:02:18;20.50;;;10.68;;
34278;SDS011;20538;51.528;9.942;2022-07-23T07:04:44;16.80;;;9.73;;
34278;SDS011;20538;51.528;9.942;2022-07-23T07:07:10;13.35;;;10.15;;
34278;SDS011;20538;51.528;9.942;2022-07-23T07:09:37;20.08;;;10.43;;
34278;SDS011;20538;51.528;9.942;2022-07-23T07:12:02;17.02;;;9.80;;
34278;SDS011;20538;51.528;9.942;2022-07-23T07:14:29;16.95;;;10.00;;
34278;SDS011;20538;51.528;9.942;2022-07-23T07:16:54;19.27;;;9.57;;
34278;SDS011;20538;51.528;9.942;2022-07-23T07:19:20;15.57;;;9.93;;
34278;SDS011;20538;51.528;9.942;2022-07-23T07:21:46;18.60;;;9.80;;
34278;SDS011;20538;51.528;9.942;2022-07-23T07:24:11;15.75;;;9.57;;
34278;SDS011;20538;51.528;9.942;2022-07-23T07:26:37;12.88;;;7.82;;
34278;SDS011;20538;51.528;9.942;2022-07-23T07:29:04;12.32;;;8.65;;
34278;SDS011;20538;51.528;9.942;2022-07-23T07:31:30;13.93;;;9.23;;
34278;SDS011;20538;51.528;9.942;2022-07-23T07:33:55;18.88;;;9.00;;
34278;SDS011;20538;51.528;9.942;2022-07-23T07:36:22;16.23;;;9.50;;
34278;SDS011;20538;51.528;9.942;2022-07-23T07:38:48;14.05;;;8.38;;
34278;SDS011;20538;51.528;9.942;2022-07-23T07:41:16;13.45;;;8.85;;
34278;SDS011;20538;51.528;9.942;2022-07-23T07:43:47;15.18;;;8.43;;
34278;SDS011;20538;51.528;9.942;2022-07-23T07:46:13;12.38;;;6.50;;
34278;SDS011;20538;51.528;9.942;2022-07-23T07:48:39;12.60;;;7.45;;
34278;SDS011;20538;51.528;9.942;2022-07-23T07:51:05;11.75;;;6.75;;
34278;SDS011;20538;51.528;9.942;2022-07-23T07:53:31;14.60;;;7.43;;
34278;SDS011;20538;51.528;9.942;2022-07-23T07:55:56;13.73;;;7.03;;
34278;SDS011;20538;51.528;9.942;2022-07-23T07:58:22;14.02;;;7.15;;
34278;SDS011;20538;51.528;9.942;2022-07-23T08:00:48;13.82;;;7.38;;
34278;SDS011;20538;51.528;9.942;2022-07-23T08:03:13;11.77;;;6.78;;
34278;SDS011;20538;51.528;9.942;2022-07-23T08:05:39;10.88;;;6.03;;
34278;SDS011;20538;51.528;9.942;2022-07-23T08:08:05;13.88;;;6.78;;
34278;SDS011;20538;51.528;9.942;2022-07-23T08:10:31;9.23;;;6.45;;
34278;SDS011;20538;51.528;9.942;2022-07-23T08:12:57;10.20;;;6.00;;
34278;SDS011;20538;51.528;9.942;2022-07-23T08:15:24;11.35;;;6.53;;
34278;SDS011;20538;51.528;9.942;2022-07-23T08:17:51;10.68;;;5.65;;
34278;SDS011;20538;51.528;9.942;2022-07-23T08:20:17;11.95;;;5.82;;
34278;SDS011;20538;51.528;9.942;2022-07-23T08:27:57;7.47;;;4.85;;
34278;SDS011;20538;51.528;9.942;2022-07-23T08:30:24;8.70;;;5.30;;
34278;SDS011;20538;51.528;9.942;2022-07-23T08:37:54;9.60;;;5.57;;
34278;SDS011;20538;51.528;9.942;2022-07-23T08:40:21;9.57;;;5.38;;
34278;SDS011;20538;51.528;9.942;2022-07-23T08:42:48;6.78;;;5.10;;
34278;SDS011;20538;51.528;9.942;2022-07-23T08:45:20;7.00;;;4.00;;
34278;SDS011;20538;51.528;9.942;2022-07-23T08:47:48;7.30;;;4.60;;
34278;SDS011;20538;51.528;9.942;2022-07-23T08:50:19;5.65;;;4.60;;
34278;SDS011;20538;51.528;9.942;2022-07-23T08:52:46;8.38;;;4.97;;
34278;SDS011;20538;51.528;9.942;2022-07-23T08:55:13;10.13;;;4.07;;
34278;SDS011;20538;51.528;9.942;2022-07-23T08:57:42;6.53;;;4.25;;
34278;SDS011;20538;51.528;9.942;2022-07-23T09:00:08;11.00;;;4.32;;
34278;SDS011;20538;51.528;9.942;2022-07-23T09:02:38;6.72;;;4.55;;
34278;SDS011;20538;51.528;9.942;2022-07-23T09:05:09;7.43;;;4.25;;
34278;SDS011;20538;51.528;9.942;2022-07-23T09:07:36;9.48;;;4.68;;
34278;SDS011;20538;51.528;9.942;2022-07-23T09:10:07;11.13;;;4.30;;
34278;SDS011;20538;51.528;9.942;2022-07-23T09:12:37;7.60;;;4.20;;
34278;SDS011;20538;51.528;9.942;2022-07-23T09:15:07;5.43;;;3.85;;
34278;SDS011;20538;51.528;9.942;2022-07-23T09:17:41;7.85;;;4.13;;
34278;SDS011;20538;51.528;9.942;2022-07-23T09:20:11;7.55;;;4.15;;
34278;SDS011;20538;51.528;9.942;2022-07-23T09:22:39;9.95;;;4.15;;
34278;SDS011;20538;51.528;9.942;2022-07-23T09:25:12;6.90;;;4.13;;
34278;SDS011;20538;51.528;9.942;2022-07-23T09:27:53;7.40;;;3.95;;
34278;SDS011;20538;51.528;9.942;2022-07-23T09:30:26;6.10;;;3.45;;
34278;SDS011;20538;51.528;9.942;2022-07-23T09:33:35;8.43;;;3.83;;
34278;SDS011;20538;51.528;9.942;2022-07-23T09:35:52;7.00;;;4.18;;
34278;SDS011;20538;51.528;9.942;2022-07-23T09:38:20;5.65;;;4.35;;
34278;SDS011;20538;51.528;9.942;2022-07-23T09:41:05;10.80;;;4.25;;
34278;SDS011;20538;51.528;9.942;2022-07-23T09:43:32;7.10;;;4.32;;
34278;SDS011;20538;51.528;9.942;2022-07-23T09:46:17;7.10;;;4.22;;
34278;SDS011;20538;51.528;9.942;2022-07-23T09:48:46;9.02;;;4.18;;
34278;SDS011;20538;51.528;9.942;2022-07-23T09:51:12;9.05;;;4.80;;
34278;SDS011;20538;51.528;9.942;2022-07-23T09:56:24;5.80;;;4.23;;
34278;SDS011;20538;51.528;9.942;2022-07-23T09:58:53;6.03;;;4.22;;
34278;SDS011;20538;51.528;9.942;2022-07-23T10:01:51;9.45;;;4.43;;
34278;SDS011;20538;51.528;9.942;2022-07-23T10:04:23;7.15;;;4.25;;
34278;SDS011;20538;51.528;9.942;2022-07-23T10:06:52;5.38;;;3.92;;
34278;SDS011;20538;51.528;9.942;2022-07-23T10:09:24;6.28;;;3.92;;
34278;SDS011;20538;51.528;9.942;2022-07-23T10:11:52;4.60;;;3.17;;
34278;SDS011;20538;51.528;9.942;2022-07-23T10:14:25;8.50;;;3.95;;
34278;SDS011;20538;51.528;9.942;2022-07-23T10:16:52;7.13;;;3.40;;
34278;SDS011;20538;51.528;9.942;2022-07-23T10:19:18;5.95;;;3.55;;
34278;SDS011;20538;51.528;9.942;2022-07-23T10:21:52;6.35;;;3.53;;
34278;SDS011;20538;51.528;9.942;2022-07-23T10:24:41;5.07;;;3.55;;
34278;SDS011;20538;51.528;9.942;2022-07-23T10:33:54;7.43;;;3.75;;
34278;SDS011;20538;51.528;9.942;2022-07-23T10:36:32;6.15;;;3.95;;
34278;SDS011;20538;51.528;9.942;2022-07-23T10:46:35;5.68;;;3.40;;
34278;SDS011;20538;51.528;9.942;2022-07-23T10:54:43;6.85;;;3.80;;
34278;SDS011;20538;51.528;9.942;2022-07-23T10:57:12;7.13;;;3.05;;
34278;SDS011;20538;51.528;9.942;2022-07-23T11:00:39;4.38;;;3.25;;
34278;SDS011;20538;51.528;9.942;2022-07-23T11:02:37;5.18;;;3.63;;
34278;SDS011;20538;51.528;9.942;2022-07-23T11:07:34;7.47;;;3.08;;
34278;SDS011;20538;51.528;9.942;2022-07-23T11:10:01;8.40;;;2.92;;
34278;SDS011;20538;51.528;9.942;2022-07-23T11:18:19;6.05;;;2.80;;
34278;SDS011;20538;51.528;9.942;2022-07-23T11:20:20;5.60;;;2.83;;
34278;SDS011;20538;51.528;9.942;2022-07-23T11:22:48;6.25;;;3.17;;
34278;SDS011;20538;51.528;9.942;2022-07-23T11:27:49;3.60;;;2.60;;
34278;SDS011;20538;51.528;9.942;2022-07-23T11:32:51;4.57;;;2.50;;
34278;SDS011;20538;51.528;9.942;2022-07-23T11:35:24;5.90;;;2.80;;
34278;SDS011;20538;51.528;9.942;2022-07-23T11:37:53;9.15;;;3.42;;
34278;SDS011;20538;51.528;9.942;2022-07-23T11:40:27;6.32;;;2.92;;
34278;SDS011;20538;51.528;9.942;2022-07-23T11:43:00;5.50;;;2.80;;
34278;SDS011;20538;51.528;9.942;2022-07-23T11:48:05;5.55;;;3.42;;
34278;SDS011;20538;51.528;9.942;2022-07-23T11:50:32;8.95;;;3.58;;
34278;SDS011;20538;51.528;9.942;2022-07-23T11:52:58;3.42;;;2.75;;
34278;SDS011;20538;51.528;9.942;2022-07-23T11:55:24;6.32;;;2.80;;
34278;SDS011;20538;51.528;9.942;2022-07-23T11:57:51;4.78;;;3.15;;
34278;SDS011;20538;51.528;9.942;2022-07-23T12:00:19;7.20;;;3.58;;
34278;SDS011;20538;51.528;9.942;2022-07-23T12:03:00;6.97;;;3.13;;
34278;SDS011;20538;51.528;9.942;2022-07-23T12:07:58;7.70;;;3.47;;
34278;SDS011;20538;51.528;9.942;2022-07-23T12:10:43;4.78;;;2.92;;
34278;SDS011;20538;51.528;9.942;2022-07-23T12:13:14;5.88;;;3.10;;
34278;SDS011;20538;51.528;9.942;2022-07-23T12:18:10;5.80;;;3.10;;
34278;SDS011;20538;51.528;9.942;2022-07-23T12:20:41;5.97;;;3.28;;
34278;SDS011;20538;51.528;9.942;2022-07-23T12:23:09;4.45;;;2.72;;
34278;SDS011;20538;51.528;9.942;2022-07-23T12:25:38;6.35;;;2.75;;
34278;SDS011;20538;51.528;9.942;2022-07-23T12:28:06;4.80;;;3.28;;
34278;SDS011;20538;51.528;9.942;2022-07-23T12:30:51;5.18;;;2.70;;
34278;SDS011;20538;51.528;9.942;2022-07-23T12:33:22;5.57;;;2.70;;
34278;SDS011;20538;51.528;9.942;2022-07-23T12:35:59;4.72;;;2.55;;
34278;SDS011;20538;51.528;9.942;2022-07-23T12:38:36;3.63;;;2.83;;
34278;SDS011;20538;51.528;9.942;2022-07-23T12:41:03;3.47;;;2.70;;
34278;SDS011;20538;51.528;9.942;2022-07-23T12:43:33;6.60;;;2.83;;
34278;SDS011;20538;51.528;9.942;2022-07-23T12:46:10;5.50;;;2.78;;
34278;SDS011;20538;51.528;9.942;2022-07-23T12:48:49;6.35;;;2.90;;
34278;SDS011;20538;51.528;9.942;2022-07-23T12:51:22;6.57;;;2.40;;
34278;SDS011;20538;51.528;9.942;2022-07-23T12:53:50;3.10;;;2.40;;
34278;SDS011;20538;51.528;9.942;2022-07-23T12:56:19;3.00;;;2.70;;
34278;SDS011;20538;51.528;9.942;2022-07-23T12:58:57;4.88;;;2.53;;
34278;SDS011;20538;51.528;9.942;2022-07-23T13:01:42;4.10;;;2.60;;
34278;SDS011;20538;51.528;9.942;2022-07-23T13:09:15;3.85;;;2.47;;
34278;SDS011;20538;51.528;9.942;2022-07-23T13:11:44;6.43;;;2.67;;
34278;SDS011;20538;51.528;9.942;2022-07-23T13:14:11;4.13;;;2.60;;
34278;SDS011;20538;51.528;9.942;2022-07-23T13:16:38;4.10;;;2.55;;
34278;SDS011;20538;51.528;9.942;2022-07-23T13:19:04;4.72;;;2.42;;
34278;SDS011;20538;51.528;9.942;2022-07-23T13:21:31;3.83;;;2.35;;
34278;SDS011;20538;51.528;9.942;2022-07-23T13:23:57;3.35;;;2.33;;
34278;SDS011;20538;51.528;9.942;2022-07-23T13:26:23;4.03;;;2.10;;
34278;SDS011;20538;51.528;9.942;2022-07-23T13:28:49;2.58;;;2.13;;
34278;SDS011;20538;51.528;9.942;2022-07-23T13:31:15;3.35;;;2.65;;
34278;SDS011;20538;51.528;9.942;2022-07-23T13:33:41;3.30;;;2.30;;
34278;SDS011;20538;51.528;9.942;2022-07-23T13:36:07;4.25;;;2.10;;
34278;SDS011;20538;51.528;9.942;2022-07-23T13:38:33;3.47;;;2.10;;
34278;SDS011;20538;51.528;9.942;2022-07-23T13:40:59;3.95;;;2.10;;
34278;SDS011;20538;51.528;9.942;2022-07-23T13:43:25;5.72;;;2.60;;
34278;SDS011;20538;51.528;9.942;2022-07-23T13:45:52;2.95;;;2.00;;
34278;SDS011;20538;51.528;9.942;2022-07-23T13:48:18;3.30;;;2.40;;
34278;SDS011;20538;51.528;9.942;2022-07-23T13:50:45;4.63;;;2.50;;
34278;SDS011;20538;51.528;9.942;2022-07-23T13:53:17;4.60;;;2.28;;
34278;SDS011;20538;51.528;9.942;2022-07-23T13:55:44;3.30;;;1.92;;
34278;SDS011;20538;51.528;9.942;2022-07-23T13:58:11;4.75;;;2.53;;
34278;SDS011;20538;51.528;9.942;2022-07-23T14:00:42;3.53;;;2.25;;
34278;SDS011;20538;51.528;9.942;2022-07-23T14:03:10;4.78;;;1.88;;
34278;SDS011;20538;51.528;9.942;2022-07-23T14:05:35;1.88;;;1.73;;
34278;SDS011;20538;51.528;9.942;2022-07-23T14:08:01;4.28;;;1.85;;
34278;SDS011;20538;51.528;9.942;2022-07-23T14:10:28;3.65;;;2.10;;
34278;SDS011;20538;51.528;9.942;2022-07-23T14:12:53;3.47;;;1.80;;
34278;SDS011;20538;51.528;9.942;2022-07-23T14:15:21;2.88;;;2.10;;
34278;SDS011;20538;51.528;9.942;2022-07-23T14:17:48;3.63;;;2.10;;
34278;SDS011;20538;51.528;9.942;2022-07-23T14:20:14;2.47;;;2.10;;
34278;SDS011;20538;51.528;9.942;2022-07-23T14:22:40;4.00;;;2.40;;
34278;SDS011;20538;51.528;9.942;2022-07-23T14:25:06;4.45;;;1.90;;
34278;SDS011;20538;51.528;9.942;2022-07-23T14:27:33;4.55;;;2.22;;
34278;SDS011;20538;51.528;9.942;2022-07-23T14:30:00;3.55;;;1.90;;
34278;SDS011;20538;51.528;9.942;2022-07-23T14:32:25;3.15;;;2.25;;
34278;SDS011;20538;51.528;9.942;2022-07-23T14:34:51;2.10;;;1.88;;
34278;SDS011;20538;51.528;9.942;2022-07-23T14:37:18;6.28;;;2.15;;
34278;SDS011;20538;51.528;9.942;2022-07-23T14:39:44;2.50;;;2.30;;
34278;SDS011;20538;51.528;9.942;2022-07-23T14:42:11;2.65;;;2.15;;
34278;SDS011;20538;51.528;9.942;2022-07-23T14:44:37;8.05;;;2.40;;
34278;SDS011;20538;51.528;9.942;2022-07-23T14:47:03;6.50;;;2.03;;
34278;SDS011;20538;51.528;9.942;2022-07-23T14:49:30;4.85;;;2.10;;
34278;SDS011;20538;51.528;9.942;2022-07-23T14:51:56;3.28;;;2.08;;
34278;SDS011;20538;51.528;9.942;2022-07-23T14:54:22;3.33;;;2.10;;
34278;SDS011;20538;51.528;9.942;2022-07-23T14:56:50;4.03;;;2.15;;
34278;SDS011;20538;51.528;9.942;2022-07-23T14:59:16;2.72;;;2.10;;
34278;SDS011;20538;51.528;9.942;2022-07-23T15:01:42;3.80;;;2.20;;
34278;SDS011;20538;51.528;9.942;2022-07-23T15:04:08;4.80;;;1.77;;
34278;SDS011;20538;51.528;9.942;2022-07-23T15:06:33;2.10;;;1.60;;
34278;SDS011;20538;51.528;9.942;2022-07-23T15:08:59;6.28;;;2.30;;
34278;SDS011;20538;51.528;9.942;2022-07-23T15:11:28;3.72;;;2.40;;
34278;SDS011;20538;51.528;9.942;2022-07-23T15:13:57;3.30;;;2.13;;
34278;SDS011;20538;51.528;9.942;2022-07-23T15:16:23;3.40;;;1.88;;
34278;SDS011;20538;51.528;9.942;2022-07-23T15:18:48;5.97;;;2.88;;
34278;SDS011;20538;51.528;9.942;2022-07-23T15:21:14;3.83;;;2.30;;
34278;SDS011;20538;51.528;9.942;2022-07-23T15:23:40;4.32;;;2.40;;
34278;SDS011;20538;51.528;9.942;2022-07-23T15:26:06;3.40;;;2.38;;
34278;SDS011;20538;51.528;9.942;2022-07-23T15:28:33;4.00;;;2.10;;
34278;SDS011;20538;51.528;9.942;2022-07-23T15:31:00;5.25;;;2.25;;
34278;SDS011;20538;51.528;9.942;2022-07-23T15:33:26;3.95;;;2.30;;
34278;SDS011;20538;51.528;9.942;2022-07-23T15:35:52;2.70;;;2.35;;
34278;SDS011;20538;51.528;9.942;2022-07-23T15:38:20;5.13;;;2.08;;